Horuphav, Denmark
Current Conditions -  °F | °C
As of 4:50 PM on Wednesday 22 Oct 2014 (Local Time) from EKSB Reporting Station
Scattered Clouds Scattered Clouds  
Wind Chill: 57°   Ceiling: Unl
Heat Index: 57°   Visibility: 6mi
Dew Point: 50°   Wind: 10mph
Humidity: 77%   Direction: 320°NW
Pressure: 29.83"   Gusts: NA
Location:  54.91°N, 9.9°E
Report Text: EKSB 221450Z 32009KT 9999 FEW030 SCT050 14/10 Q1010
Loading
Personal Weather Stations






























Interactive Weather Map
Tropical Storm Tracking
New forecast layout! Learn more

10-Day Weather Forecast

Advertisements
Track Severe Weather on mobile